Hyundai No.107 — A8CT4 — position and weather

sailwx.info

Track history (hours):
 
Tides and Currents Weather Stations Pressure Air Temp Water Temp Dewpoint Dewpoint Depression Visibility Wind Speed Wind Dir Waves Ship Positions

Hyundai No.107

Last reported at 2014-Sep-26 22:17 UTC. Time now 2014-Sep-30 15:57 UTC.
Position N 31°56' E 120°13'.

Length 184 m; draft 6.1 m.

Type: Cargo ship. MMSI: 636011980.

Date/timePositionNaut miles runAvg speedWind from/ knotsBaromVisibWave heightAir tempDewpointWater temp
2014-Sep-26 22:17N 31°56' E 120°13'0 0.0
2014-Sep-26 21:33N 31°56' E 120°13'0 0.0
2014-Sep-26 20:31N 31°56' E 120°13'0 0.3
2014-Sep-26 19:28N 31°55' E 120°13'0 0.1
2014-Sep-26 18:31N 31°55' E 120°13'0 0.1
2014-Sep-26 17:33N 31°55' E 120°13'0 0.0
2014-Sep-26 16:33N 31°55' E 120°13'0 0.0
2014-Sep-26 15:33N 31°55' E 120°13'0 0.1
2014-Sep-26 14:32N 31°55' E 120°13'0 0.0
2014-Sep-26 13:29N 31°55' E 120°13'0 0.0
2014-Sep-26 12:32N 31°55' E 120°13'0 0.0
2014-Sep-26 11:31N 31°55' E 120°13'0 0.2
2014-Sep-26 10:27N 31°56' E 120°13'1 0.6
2014-Sep-26 09:33N 31°56' E 120°14'0 0.0
2014-Sep-26 08:32N 31°56' E 120°14'0 0.0
2014-Sep-26 07:28N 31°56' E 120°14'0 0.0
2014-Sep-26 06:31N 31°56' E 120°14'0 0.0
2014-Sep-26 05:33N 31°56' E 120°14'0 0.0
2014-Sep-26 04:33N 31°56' E 120°14'0 0.0
2014-Sep-26 03:32N 31°56' E 120°14'0 0.0
2014-Sep-26 02:32N 31°56' E 120°14'0 0.0
2014-Sep-26 01:31N 31°56' E 120°14'0 0.0
2014-Sep-26 00:30N 31°56' E 120°14'0 0.0
2014-Sep-25 23:33N 31°56' E 120°14'0 0.0
2014-Sep-25 22:30N 31°55' E 120°14'0 0.0
2014-Sep-25 21:32N 31°55' E 120°14'0 0.0
2014-Sep-25 20:31N 31°56' E 120°14'0 0.0
2014-Sep-25 19:33N 31°56' E 120°14'0 0.0
2014-Sep-25 18:33N 31°55' E 120°14'0 0.0
2014-Sep-25 17:33N 31°56' E 120°14'0 0.0
2014-Sep-25 16:32N 31°56' E 120°14'0 0.0
2014-Sep-25 15:29N 31°56' E 120°14'0 0.0
2014-Sep-25 14:32N 31°56' E 120°14'0 0.0
2014-Sep-25 13:31N 31°56' E 120°14'0 0.0
2014-Sep-25 12:31N 31°56' E 120°14'0 0.0
2014-Sep-25 11:18N 31°56' E 120°14'0 0.0
2014-Sep-25 10:33N 31°56' E 120°14'0 0.0
2014-Sep-25 09:30N 31°56' E 120°14'0 0.0
2014-Sep-25 08:29N 31°56' E 120°14'0 0.0
2014-Sep-25 07:28N 31°56' E 120°14'0 0.0
2014-Sep-25 06:31N 31°56' E 120°14'0 0.0
2014-Sep-25 05:27N 31°56' E 120°14'0 0.0
2014-Sep-25 04:33N 31°56' E 120°14'0 0.0
2014-Sep-25 03:29N 31°56' E 120°14'0 0.0
2014-Sep-25 02:31N 31°56' E 120°14'0 0.0
2014-Sep-25 01:33N 31°56' E 120°14'0 0.1
2014-Sep-25 00:33N 31°56' E 120°14'5 4.9
2014-Sep-24 23:34N 31°58' E 120°19'8 7.5
2014-Sep-24 22:33N 32°03' E 120°26'10 9.8
2014-Sep-24 21:33N 32°00' E 120°37'1110.5
2014-Sep-24 20:33N 31°60' E 120°49'1312.6
2014-Sep-24 19:33N 31°48' E 120°55'1212.0
2014-Sep-24 18:33N 31°43' E 121°08'1413.9
2014-Sep-24 17:32N 31°33' E 121°20'1111.6
2014-Sep-24 16:33N 31°26' E 121°30'1010.1
2014-Sep-24 15:33N 31°21' E 121°40'1413.6
2014-Sep-24 14:30N 31°10' E 121°52'2311.7
2014-Sep-24 12:32N 31°03' E 122°17'7 7.2
2014-Sep-24 11:33N 31°01' E 122°25'8 7.4
2014-Sep-24 10:29N 30°60' E 122°34'7 7.1
2014-Sep-24 09:32N 30°58' E 122°42'7 6.4
2014-Sep-24 08:28N 30°57' E 122°49'5 5.4
2014-Sep-24 07:31N 30°56' E 122°55'  
Track history (hours):
 
Tides and Currents Weather Stations Pressure Air Temp Water Temp Dewpoint Dewpoint Depression Visibility Wind Speed Wind Dir Waves Ship Positions

Hyundai No.107

Last reported at 2014-Sep-26 22:17 UTC. Time now 2014-Sep-30 15:57 UTC.
Position N 31°56' E 120°13'.

Length 184 m; draft 6.1 m.

Type: Cargo ship. MMSI: 636011980.

Date/timePositionNaut miles runAvg speedWind from/ knotsBaromVisibWave heightAir tempDewpointWater temp
2014-Sep-26 22:17N 31°56' E 120°13'0 0.0
2014-Sep-26 21:33N 31°56' E 120°13'0 0.0
2014-Sep-26 20:31N 31°56' E 120°13'0 0.3
2014-Sep-26 19:28N 31°55' E 120°13'0 0.1
2014-Sep-26 18:31N 31°55' E 120°13'0 0.1
2014-Sep-26 17:33N 31°55' E 120°13'0 0.0
2014-Sep-26 16:33N 31°55' E 120°13'0 0.0
2014-Sep-26 15:33N 31°55' E 120°13'0 0.1
2014-Sep-26 14:32N 31°55' E 120°13'0 0.0
2014-Sep-26 13:29N 31°55' E 120°13'0 0.0
2014-Sep-26 12:32N 31°55' E 120°13'0 0.0
2014-Sep-26 11:31N 31°55' E 120°13'0 0.2
2014-Sep-26 10:27N 31°56' E 120°13'1 0.6
2014-Sep-26 09:33N 31°56' E 120°14'0 0.0
2014-Sep-26 08:32N 31°56' E 120°14'0 0.0
2014-Sep-26 07:28N 31°56' E 120°14'0 0.0
2014-Sep-26 06:31N 31°56' E 120°14'0 0.0
2014-Sep-26 05:33N 31°56' E 120°14'0 0.0
2014-Sep-26 04:33N 31°56' E 120°14'0 0.0
2014-Sep-26 03:32N 31°56' E 120°14'0 0.0
2014-Sep-26 02:32N 31°56' E 120°14'0 0.0
2014-Sep-26 01:31N 31°56' E 120°14'0 0.0
2014-Sep-26 00:30N 31°56' E 120°14'0 0.0
2014-Sep-25 23:33N 31°56' E 120°14'0 0.0
2014-Sep-25 22:30N 31°55' E 120°14'0 0.0
2014-Sep-25 21:32N 31°55' E 120°14'0 0.0
2014-Sep-25 20:31N 31°56' E 120°14'0 0.0
2014-Sep-25 19:33N 31°56' E 120°14'0 0.0
2014-Sep-25 18:33N 31°55' E 120°14'0 0.0
2014-Sep-25 17:33N 31°56' E 120°14'0 0.0
2014-Sep-25 16:32N 31°56' E 120°14'0 0.0
2014-Sep-25 15:29N 31°56' E 120°14'0 0.0
2014-Sep-25 14:32N 31°56' E 120°14'0 0.0
2014-Sep-25 13:31N 31°56' E 120°14'0 0.0
2014-Sep-25 12:31N 31°56' E 120°14'0 0.0
2014-Sep-25 11:18N 31°56' E 120°14'0 0.0
2014-Sep-25 10:33N 31°56' E 120°14'0 0.0
2014-Sep-25 09:30N 31°56' E 120°14'0 0.0
2014-Sep-25 08:29N 31°56' E 120°14'0 0.0
2014-Sep-25 07:28N 31°56' E 120°14'0 0.0
2014-Sep-25 06:31N 31°56' E 120°14'0 0.0
2014-Sep-25 05:27N 31°56' E 120°14'0 0.0
2014-Sep-25 04:33N 31°56' E 120°14'0 0.0
2014-Sep-25 03:29N 31°56' E 120°14'0 0.0
2014-Sep-25 02:31N 31°56' E 120°14'0 0.0
2014-Sep-25 01:33N 31°56' E 120°14'0 0.1
2014-Sep-25 00:33N 31°56' E 120°14'5 4.9
2014-Sep-24 23:34N 31°58' E 120°19'8 7.5
2014-Sep-24 22:33N 32°03' E 120°26'10 9.8
2014-Sep-24 21:33N 32°00' E 120°37'1110.5
2014-Sep-24 20:33N 31°60' E 120°49'1312.6
2014-Sep-24 19:33N 31°48' E 120°55'1212.0
2014-Sep-24 18:33N 31°43' E 121°08'1413.9
2014-Sep-24 17:32N 31°33' E 121°20'1111.6
2014-Sep-24 16:33N 31°26' E 121°30'1010.1
2014-Sep-24 15:33N 31°21' E 121°40'1413.6
2014-Sep-24 14:30N 31°10' E 121°52'2311.7
2014-Sep-24 12:32N 31°03' E 122°17'7 7.2
2014-Sep-24 11:33N 31°01' E 122°25'8 7.4
2014-Sep-24 10:29N 30°60' E 122°34'7 7.1
2014-Sep-24 09:32N 30°58' E 122°42'7 6.4
2014-Sep-24 08:28N 30°57' E 122°49'5 5.4
2014-Sep-24 07:31N 30°56' E 122°55'  

Dump ship's entire track history